sensor_id;sensor_type;location;lat;lon;timestamp;temperature;humidity
16968;DHT22;64862;54.398;10.126;2023-02-11T00:00:07;6.10;99.90
16968;DHT22;64862;54.398;10.126;2023-02-11T00:10:11;6.10;99.90
16968;DHT22;64862;54.398;10.126;2023-02-11T00:20:14;6.20;99.90
16968;DHT22;64862;54.398;10.126;2023-02-11T00:30:19;6.30;99.90
16968;DHT22;64862;54.398;10.126;2023-02-11T00:40:21;6.30;99.90
16968;DHT22;64862;54.398;10.126;2023-02-11T00:50:25;6.50;99.90
16968;DHT22;64862;54.398;10.126;2023-02-11T01:00:29;6.60;99.90
16968;DHT22;64862;54.398;10.126;2023-02-11T01:10:33;6.70;99.90
16968;DHT22;64862;54.398;10.126;2023-02-11T01:20:35;6.70;99.90
16968;DHT22;64862;54.398;10.126;2023-02-11T01:30:39;6.90;99.90
16968;DHT22;64862;54.398;10.126;2023-02-11T01:40:46;6.80;99.90
16968;DHT22;64862;54.398;10.126;2023-02-11T01:50:53;7.00;99.90
16968;DHT22;64862;54.398;10.126;2023-02-11T02:00:58;7.00;99.90
16968;DHT22;64862;54.398;10.126;2023-02-11T02:11:04;7.10;99.90
16968;DHT22;64862;54.398;10.126;2023-02-11T02:22:01;7.00;99.90
16968;DHT22;64862;54.398;10.126;2023-02-11T02:32:39;7.10;99.90
16968;DHT22;64862;54.398;10.126;2023-02-11T02:42:44;7.20;99.90
16968;DHT22;64862;54.398;10.126;2023-02-11T02:52:58;7.30;99.90
16968;DHT22;64862;54.398;10.126;2023-02-11T03:03:14;7.40;99.90
16968;DHT22;64862;54.398;10.126;2023-02-11T03:13:25;7.40;99.90
16968;DHT22;64862;54.398;10.126;2023-02-11T03:23:31;7.50;99.90
16968;DHT22;64862;54.398;10.126;2023-02-11T03:33:41;7.50;99.90
16968;DHT22;64862;54.398;10.126;2023-02-11T03:43:50;7.50;99.90
16968;DHT22;64862;54.398;10.126;2023-02-11T03:53:55;7.60;99.90
16968;DHT22;64862;54.398;10.126;2023-02-11T04:03:59;7.50;99.90
16968;DHT22;64862;54.398;10.126;2023-02-11T04:14:03;7.60;99.90
16968;DHT22;64862;54.398;10.126;2023-02-11T04:24:05;7.60;99.90
16968;DHT22;64862;54.398;10.126;2023-02-11T04:34:08;7.70;99.90
16968;DHT22;64862;54.398;10.126;2023-02-11T04:44:11;7.60;99.90
16968;DHT22;64862;54.398;10.126;2023-02-11T04:54:15;7.60;99.90
16968;DHT22;64862;54.398;10.126;2023-02-11T05:04:17;7.70;99.90
16968;DHT22;64862;54.398;10.126;2023-02-11T05:14:21;7.70;99.90
16968;DHT22;64862;54.398;10.126;2023-02-11T05:24:24;7.70;99.90
16968;DHT22;64862;54.398;10.126;2023-02-11T05:34:27;7.70;99.90
16968;DHT22;64862;54.398;10.126;2023-02-11T05:44:30;7.80;99.90
16968;DHT22;64862;54.398;10.126;2023-02-11T05:54:33;7.80;99.90
16968;DHT22;64862;54.398;10.126;2023-02-11T06:04:36;7.80;99.90
16968;DHT22;64862;54.398;10.126;2023-02-11T06:14:40;7.80;99.90
16968;DHT22;64862;54.398;10.126;2023-02-11T06:24:42;7.80;99.90
16968;DHT22;64862;54.398;10.126;2023-02-11T06:34:46;7.70;99.90
16968;DHT22;64862;54.398;10.126;2023-02-11T06:44:48;7.70;99.90
16968;DHT22;64862;54.398;10.126;2023-02-11T06:54:51;7.80;99.90
16968;DHT22;64862;54.398;10.126;2023-02-11T07:04:54;8.00;99.90
16968;DHT22;64862;54.398;10.126;2023-02-11T07:14:57;7.90;99.90
16968;DHT22;64862;54.398;10.126;2023-02-11T07:24:59;8.00;99.90
16968;DHT22;64862;54.398;10.126;2023-02-11T07:35:04;7.90;99.90
16968;DHT22;64862;54.398;10.126;2023-02-11T07:45:07;8.00;99.90
16968;DHT22;64862;54.398;10.126;2023-02-11T07:55:11;8.10;99.90
16968;DHT22;64862;54.398;10.126;2023-02-11T08:05:13;8.10;99.90
16968;DHT22;64862;54.398;10.126;2023-02-11T08:15:17;8.20;99.90
16968;DHT22;64862;54.398;10.126;2023-02-11T08:25:22;8.20;99.90
16968;DHT22;64862;54.398;10.126;2023-02-11T08:35:25;8.20;99.90
16968;DHT22;64862;54.398;10.126;2023-02-11T08:45:28;8.30;99.90
16968;DHT22;64862;54.398;10.126;2023-02-11T08:55:31;8.30;99.90
16968;DHT22;64862;54.398;10.126;2023-02-11T09:05:33;8.50;99.90
16968;DHT22;64862;54.398;10.126;2023-02-11T09:15:37;8.60;99.90
16968;DHT22;64862;54.398;10.126;2023-02-11T09:25:40;8.60;99.90
16968;DHT22;64862;54.398;10.126;2023-02-11T09:35:43;8.90;99.90
16968;DHT22;64862;54.398;10.126;2023-02-11T09:45:46;9.00;99.90
16968;DHT22;64862;54.398;10.126;2023-02-11T09:55:51;9.00;99.90
16968;DHT22;64862;54.398;10.126;2023-02-11T10:06:09;9.30;99.90
16968;DHT22;64862;54.398;10.126;2023-02-11T10:16:33;9.20;99.90
16968;DHT22;64862;54.398;10.126;2023-02-11T10:26:39;9.20;99.90
16968;DHT22;64862;54.398;10.126;2023-02-11T10:36:44;9.20;99.90
16968;DHT22;64862;54.398;10.126;2023-02-11T10:46:47;9.30;99.90
16968;DHT22;64862;54.398;10.126;2023-02-11T10:56:58;9.40;99.90
16968;DHT22;64862;54.398;10.126;2023-02-11T11:07:14;9.40;99.90
16968;DHT22;64862;54.398;10.126;2023-02-11T11:17:19;9.60;99.90
16968;DHT22;64862;54.398;10.126;2023-02-11T11:27:23;9.70;99.90
16968;DHT22;64862;54.398;10.126;2023-02-11T11:37:29;9.80;99.90
16968;DHT22;64862;54.398;10.126;2023-02-11T11:47:35;10.00;99.90
16968;DHT22;64862;54.398;10.126;2023-02-11T11:57:40;10.20;99.90
16968;DHT22;64862;54.398;10.126;2023-02-11T12:07:53;10.20;99.90
16968;DHT22;64862;54.398;10.126;2023-02-11T12:18:13;10.30;99.90
16968;DHT22;64862;54.398;10.126;2023-02-11T12:28:20;10.20;99.90
16968;DHT22;64862;54.398;10.126;2023-02-11T12:49:41;10.40;99.90
16968;DHT22;64862;54.398;10.126;2023-02-11T12:59:52;10.70;99.90
16968;DHT22;64862;54.398;10.126;2023-02-11T13:10:00;10.60;99.90
16968;DHT22;64862;54.398;10.126;2023-02-11T13:20:11;10.60;99.90
16968;DHT22;64862;54.398;10.126;2023-02-11T13:30:22;10.40;99.90
16968;DHT22;64862;54.398;10.126;2023-02-11T13:40:30;10.40;99.90
16968;DHT22;64862;54.398;10.126;2023-02-11T13:50:37;10.40;99.90
16968;DHT22;64862;54.398;10.126;2023-02-11T14:00:46;10.30;99.90
16968;DHT22;64862;54.398;10.126;2023-02-11T14:10:51;10.30;99.90
16968;DHT22;64862;54.398;10.126;2023-02-11T14:21:09;10.20;99.90
16968;DHT22;64862;54.398;10.126;2023-02-11T14:31:17;10.00;99.90
16968;DHT22;64862;54.398;10.126;2023-02-11T14:41:22;10.10;99.90
16968;DHT22;64862;54.398;10.126;2023-02-11T14:51:27;9.90;99.90
16968;DHT22;64862;54.398;10.126;2023-02-11T15:01:33;10.10;99.90
16968;DHT22;64862;54.398;10.126;2023-02-11T15:11:40;10.10;99.90
16968;DHT22;64862;54.398;10.126;2023-02-11T15:21:44;10.10;99.90
16968;DHT22;64862;54.398;10.126;2023-02-11T15:32:02;10.20;99.90
16968;DHT22;64862;54.398;10.126;2023-02-11T15:42:25;9.90;99.90
16968;DHT22;64862;54.398;10.126;2023-02-11T15:52:29;9.90;99.90
16968;DHT22;64862;54.398;10.126;2023-02-11T16:02:33;9.70;99.90
16968;DHT22;64862;54.398;10.126;2023-02-11T16:12:37;9.40;99.90
16968;DHT22;64862;54.398;10.126;2023-02-11T16:22:39;9.10;99.90
16968;DHT22;64862;54.398;10.126;2023-02-11T16:32:42;8.90;99.90
16968;DHT22;64862;54.398;10.126;2023-02-11T16:42:44;8.90;99.90
16968;DHT22;64862;54.398;10.126;2023-02-11T16:52:48;8.80;99.90
16968;DHT22;64862;54.398;10.126;2023-02-11T17:02:51;8.80;99.90
16968;DHT22;64862;54.398;10.126;2023-02-11T17:12:55;8.80;99.90
16968;DHT22;64862;54.398;10.126;2023-02-11T17:22:57;8.70;99.90
16968;DHT22;64862;54.398;10.126;2023-02-11T17:33:00;8.80;99.90
16968;DHT22;64862;54.398;10.126;2023-02-11T17:43:02;8.80;99.90
16968;DHT22;64862;54.398;10.126;2023-02-11T17:53:06;8.60;99.90
16968;DHT22;64862;54.398;10.126;2023-02-11T18:03:08;8.60;99.90
16968;DHT22;64862;54.398;10.126;2023-02-11T18:13:11;8.50;99.90
16968;DHT22;64862;54.398;10.126;2023-02-11T18:23:13;8.40;99.90
16968;DHT22;64862;54.398;10.126;2023-02-11T18:33:16;8.50;99.90
16968;DHT22;64862;54.398;10.126;2023-02-11T18:43:19;8.50;99.90
16968;DHT22;64862;54.398;10.126;2023-02-11T18:53:23;8.50;99.90
16968;DHT22;64862;54.398;10.126;2023-02-11T19:03:25;8.50;99.90
16968;DHT22;64862;54.398;10.126;2023-02-11T19:13:28;8.60;99.90
16968;DHT22;64862;54.398;10.126;2023-02-11T19:23:32;8.60;99.90
16968;DHT22;64862;54.398;10.126;2023-02-11T19:33:35;8.60;99.90
16968;DHT22;64862;54.398;10.126;2023-02-11T19:43:39;8.60;99.90
16968;DHT22;64862;54.398;10.126;2023-02-11T19:53:43;8.60;99.90
16968;DHT22;64862;54.398;10.126;2023-02-11T20:03:47;8.60;99.90
16968;DHT22;64862;54.398;10.126;2023-02-11T20:13:51;8.60;99.90
16968;DHT22;64862;54.398;10.126;2023-02-11T20:23:53;8.70;99.90
16968;DHT22;64862;54.398;10.126;2023-02-11T20:33:58;8.70;99.90
16968;DHT22;64862;54.398;10.126;2023-02-11T20:44:05;8.60;99.90
16968;DHT22;64862;54.398;10.126;2023-02-11T20:54:13;8.50;99.90
16968;DHT22;64862;54.398;10.126;2023-02-11T21:04:18;8.50;99.90
16968;DHT22;64862;54.398;10.126;2023-02-11T21:14:23;8.50;99.90
16968;DHT22;64862;54.398;10.126;2023-02-11T21:24:25;8.50;99.90
16968;DHT22;64862;54.398;10.126;2023-02-11T21:34:29;8.50;99.90
16968;DHT22;64862;54.398;10.126;2023-02-11T21:44:31;8.50;99.90
16968;DHT22;64862;54.398;10.126;2023-02-11T21:54:34;8.50;99.90
16968;DHT22;64862;54.398;10.126;2023-02-11T22:04:36;8.40;99.90
16968;DHT22;64862;54.398;10.126;2023-02-11T22:14:39;8.40;99.90
16968;DHT22;64862;54.398;10.126;2023-02-11T22:24:41;8.50;99.90
16968;DHT22;64862;54.398;10.126;2023-02-11T22:34:46;8.40;99.90
16968;DHT22;64862;54.398;10.126;2023-02-11T22:44:48;8.40;99.90
16968;DHT22;64862;54.398;10.126;2023-02-11T22:54:51;8.50;99.90
16968;DHT22;64862;54.398;10.126;2023-02-11T23:04:54;8.50;99.90
16968;DHT22;64862;54.398;10.126;2023-02-11T23:14:58;8.50;99.90
16968;DHT22;64862;54.398;10.126;2023-02-11T23:25:00;8.50;99.90
16968;DHT22;64862;54.398;10.126;2023-02-11T23:35:03;8.40;99.90
16968;DHT22;64862;54.398;10.126;2023-02-11T23:45:06;8.40;99.90
16968;DHT22;64862;54.398;10.126;2023-02-11T23:55:10;8.40;99.90
